Latest Weather Observations for Murganella Airstrip

IDD60801

Issued at 6:31 pm CST Friday 31 July 2015 (issued every 30 minutes, with the page automatically refreshed every 10 minutes)

About weather observations | Map of weather stations | Latest weather observations for NT | Other Formats
Station Details ID: 014309 Name: MURGANELLA AIRSTRIP Lat: -11.55 Lon: 132.93 Height: 9.5 m
Data from the previous 72 hours. | See also: Recent months for locations in Northern Territory
Date/Time
CST
Temp
°C
App
Temp
°C
Dew
Point
Rel
Hum
%
Delta-T
°C
Wind Press
QNH
hPa
Press
MSL
hPa
Rain
since 9 am
mm
Dir
 
Spd
km/h
Gust
km/h
Spd
kts
Gust
kts
31/06:30pm 25.0 28.0 21.9 83 2.1 ENE 9 13 5 7 1012.2 1012.2 0.0
31/06:00pm 25.6 28.0 20.8 75 3.2 ENE 9 19 5 10 1012.0 1012.0 0.0
31/05:30pm 26.6 27.9 20.2 68 4.2 ENE 13 26 7 14 1011.7 1011.7 0.0
31/05:00pm 27.3 28.7 19.6 62 5.0 NE 11 20 6 11 1011.7 1011.7 0.0
31/04:30pm 27.8 28.7 19.3 60 5.5 ENE 13 24 7 13 1011.7 1011.7 0.0
31/04:00pm 27.8 28.0 19.3 60 5.5 ENE 17 32 9 17 1011.7 1011.7 0.0
31/03:30pm 28.8 28.9 20.0 59 5.8 E 19 35 10 19 1011.9 1011.9 0.0
31/03:00pm 29.0 28.9 18.7 53 6.6 ENE 17 30 9 16 1012.2 1012.2 0.0
31/02:30pm 28.4 27.9 19.9 60 5.6 E 22 35 12 19 1012.6 1012.6 0.0
31/02:00pm 29.3 29.6 20.5 59 5.8 E 19 33 10 18 1013.1 1013.1 0.0
31/01:30pm 28.4 27.2 19.3 57 5.9 E 24 41 13 22 1013.6 1013.6 0.0
31/01:00pm 29.1 28.9 19.7 57 6.1 E 20 35 11 19 1014.1 1014.1 0.0
31/12:30pm 29.2 29.6 20.6 59 5.7 E 19 30 10 16 1014.6 1014.6 0.0
31/12:00pm 28.3 28.3 20.1 61 5.4 ENE 20 35 11 19 1014.9 1014.9 0.0
31/11:30am 29.3 30.9 21.5 63 5.2 E 15 28 8 15 1015.3 1015.3 0.0
31/11:00am 27.2 28.1 20.8 68 4.2 E 17 30 9 16 1015.6 1015.6 0.0
31/10:30am 27.4 29.1 21.7 71 3.8 ENE 15 28 8 15 1016.0 1016.0 0.0
31/10:00am 26.8 28.1 20.9 70 3.9 ENE 15 28 8 15 1016.2 1016.2 0.0
31/09:30am 26.7 29.2 21.7 74 3.3 ESE 11 19 6 10 1015.9 1015.9 0.0
31/09:00am 26.1 29.4 22.6 81 2.4 E 9 19 5 10 1016.0 1016.0 0.0
31/08:30am 24.5 29.3 23.5 94 0.7 ESE 4 9 2 5 1015.9 1015.9 0.0
31/08:00am 22.4 26.6 22.4 100 0.0 SE 4 6 2 3 1015.7 1015.7 0.0
31/07:30am 19.2 22.5 19.2 100 0.0 CALM 0 0 0 0 1015.6 1015.6 0.0
31/07:00am 19.0 22.3 19.0 100 0.0 CALM 0 0 0 0 1015.4 1015.4 0.0
31/06:30am 20.3 24.2 20.3 100 0.0 CALM 0 4 0 2 1015.3 1015.3 0.0
31/06:00am 21.1 24.6 21.1 100 0.0 ESE 4 7 2 4 1015.0 1015.0 0.0
31/05:30am 21.7 25.1 21.7 100 0.0 ESE 6 11 3 6 1014.9 1014.9 0.0
31/05:00am 21.7 24.9 21.7 100 0.0 ESE 7 11 4 6 1015.0 1015.0 0.0
31/04:30am 21.4 24.7 21.4 100 0.0 ESE 6 9 3 5 1015.1 1015.1 0.0
31/04:00am 21.3 24.2 20.6 96 0.5 ESE 6 9 3 5 1015.3 1015.3 0.0
31/03:30am 21.8 24.3 19.9 89 1.2 ESE 6 13 3 7 1015.2 1015.2 0.0
31/03:00am 22.2 24.4 19.7 86 1.6 ESE 7 13 4 7 1015.3 1015.3 0.0
31/02:30am 22.5 24.8 19.9 85 1.7 ESE 7 11 4 6 1015.4 1015.4 0.0
31/02:00am 22.8 25.1 19.8 83 1.9 ESE 7 13 4 7 1015.7 1015.7 0.0
31/01:30am 23.4 25.9 20.2 82 2.1 ESE 7 13 4 7 1015.9 1015.9 0.0
31/01:00am 24.1 26.4 21.4 85 1.8 ESE 11 20 6 11 1016.0 1016.0 0.0
31/12:30am 24.0 27.8 24.0 100 0.0 ESE 11 20 6 11 1016.1 1016.1 0.0
31/12:00am 23.2 27.3 23.2 100 0.0 E 7 11 4 6 1016.0 1016.0 0.0
 
Date/Time
CST
Temp
°C
App
Temp
°C
Dew
Point
Rel
Hum
%
Delta-T
°C
Wind Press
QNH
hPa
Press
MSL
hPa
Rain
since 9 am
mm
Dir
 
Spd
km/h
Gust
km/h
Spd
kts
Gust
kts
30/11:30pm 23.2 27.4 23.2 100 0.0 E 6 11 3 6 1015.9 1015.9 0.0
30/11:00pm 22.4 26.2 22.4 100 0.0 E 6 9 3 5 1015.7 1015.7 0.0
30/10:30pm 22.1 26.1 22.1 100 0.0 E 4 6 2 3 1015.9 1015.9 0.0
30/10:00pm 22.2 26.3 22.2 100 0.0 E 4 6 2 3 1015.7 1015.7 0.0
30/09:30pm 22.5 26.7 22.5 100 0.0 ESE 4 6 2 3 1015.4 1015.4 0.0
30/09:00pm 23.3 27.6 23.3 100 0.0 ENE 6 9 3 5 1015.1 1015.1 0.0
30/08:30pm 23.6 28.5 23.6 100 0.0 E 4 7 2 4 1014.9 1014.9 0.0
30/08:00pm 24.0 28.1 23.3 96 0.5 ENE 7 15 4 8 1014.6 1014.6 0.0
30/07:30pm 24.3 28.2 22.6 90 1.1 ENE 6 11 3 6 1014.2 1014.2 0.0
30/07:00pm 24.6 27.7 21.5 83 2.1 ENE 7 11 4 6 1013.8 1013.8 0.0
30/06:30pm 25.4 28.6 20.4 74 3.3 ENE 4 7 2 4 1013.6 1013.6 0.0
30/06:00pm 26.7 29.0 19.8 66 4.5 NE 7 15 4 8 1013.4 1013.4 0.0
30/05:30pm 28.2 30.1 19.7 60 5.5 ENE 9 15 5 8 1013.1 1013.1 0.0
30/05:00pm 28.5 30.0 19.7 59 5.7 ENE 11 19 6 10 1012.9 1012.9 0.0
30/04:30pm 29.1 30.4 19.4 55 6.3 NE 11 19 6 10 1012.8 1012.8 0.0
30/04:00pm 29.4 30.5 19.7 56 6.3 ENE 13 22 7 12 1012.8 1012.8 0.0
30/03:30pm 29.9 31.0 19.6 54 6.7 NE 13 24 7 13 1012.9 1012.9 0.0
30/03:00pm 30.2 30.6 19.9 54 6.8 E 17 28 9 15 1013.1 1013.1 0.0
30/02:30pm 30.4 30.7 19.7 52 7.0 ENE 17 26 9 14 1013.6 1013.6 0.0
30/02:00pm 29.4 28.9 19.1 54 6.7 ENE 20 33 11 18 1014.2 1014.2 0.0
30/01:30pm 29.8 29.7 19.5 54 6.7 E 19 35 10 19 1014.7 1014.7 0.0
30/01:00pm 29.1 28.4 19.4 55 6.3 ENE 22 35 12 19 1015.1 1015.1 0.0
30/12:30pm 29.5 29.1 20.1 57 6.2 E 22 46 12 25 1015.6 1015.6 0.0
30/12:00pm 28.3 27.1 20.1 61 5.4 E 26 43 14 23 1016.0 1016.0 0.0
30/11:30am 27.9 28.1 20.5 64 4.9 E 20 37 11 20 1016.6 1016.6 0.0
30/11:00am 27.2 26.7 20.0 64 4.7 E 22 39 12 21 1016.9 1016.9 0.0
30/10:30am 26.8 27.6 20.6 69 4.1 ESE 17 33 9 18 1017.0 1017.0 0.0
30/10:00am 26.4 27.5 20.5 70 3.9 E 15 30 8 16 1017.2 1017.2 0.0
30/09:30am 25.6 26.0 19.9 70 3.7 ESE 17 26 9 14 1017.1 1017.1 0.0
30/09:00am 25.7 27.2 20.5 73 3.4 E 13 24 7 13 1016.8 1016.8 0.0
30/08:30am 24.4 27.8 21.7 85 1.8 ESE 6 7 3 4 1016.5 1016.5 0.0
30/08:00am 22.5 27.5 22.5 100 0.0 CALM 0 0 0 0 1016.4 1016.4 0.0
30/07:30am 19.2 22.2 19.2 100 0.0 SE 2 2 1 1 1016.1 1016.1 0.0
30/07:00am 19.6 22.7 19.6 100 0.0 SE 2 4 1 2 1015.8 1015.8 0.0
30/06:30am 20.5 23.3 20.5 100 0.0 SE 6 9 3 5 1015.6 1015.6 0.0
30/06:00am 20.6 23.5 20.6 100 0.0 SE 6 9 3 5 1015.5 1015.5 0.0
30/05:30am 20.9 23.9 20.9 100 0.0 ESE 6 9 3 5 1015.4 1015.4 0.0
30/05:00am 21.1 24.1 20.9 99 0.1 ESE 6 9 3 5 1015.2 1015.2 0.0
30/04:30am 21.8 24.7 21.0 95 0.5 SE 7 15 4 8 1015.3 1015.3 0.0
30/04:00am 22.4 24.9 21.0 92 0.9 ESE 9 17 5 9 1015.7 1015.7 0.0
30/03:30am 22.6 25.0 20.9 90 1.1 ESE 9 13 5 7 1015.8 1015.8 0.0
30/03:00am 23.0 25.7 20.7 87 1.5 ESE 7 13 4 7 1016.2 1016.2 0.0
30/02:30am 22.9 25.2 20.6 87 1.5 ESE 9 19 5 10 1016.5 1016.5 0.0
30/02:00am 22.6 25.1 20.3 87 1.5 ESE 7 15 4 8 1016.6 1016.6 0.0
30/01:30am 22.8 24.9 19.0 79 2.4 ESE 6 7 3 4 1016.8 1016.8 0.0
30/01:00am 23.7 25.7 19.2 76 2.9 ESE 7 11 4 6 1016.9 1016.9 0.0
30/12:30am 24.3 26.2 19.8 76 2.9 ESE 9 19 5 10 1017.0 1017.0 0.0
30/12:00am 23.8 27.5 22.6 93 0.8 ESE 7 15 4 8 1016.9 1016.9 0.0
 
Date/Time
CST
Temp
°C
App
Temp
°C
Dew
Point
Rel
Hum
%
Delta-T
°C
Wind Press
QNH
hPa
Press
MSL
hPa
Rain
since 9 am
mm
Dir
 
Spd
km/h
Gust
km/h
Spd
kts
Gust
kts
29/11:30pm 23.3 27.6 23.3 100 0.0 ESE 6 11 3 6 1016.9 1016.9 0.0
29/11:00pm 23.7 28.6 23.7 100 0.0 ESE 4 6 2 3 1016.9 1016.9 0.0
29/10:30pm 24.5 29.3 24.2 98 0.2 E 6 11 3 6 1016.8 1016.8 0.0
29/10:00pm 24.8 29.1 23.6 93 0.8 E 7 17 4 9 1016.6 1016.6 0.0
29/09:30pm 24.7 28.6 22.9 90 1.2 E 7 11 4 6 1016.3 1016.3 0.0
29/09:00pm 24.6 28.3 22.3 87 1.5 E 6 9 3 5 1016.2 1016.2 0.0
29/08:30pm 24.8 28.0 21.3 81 2.3 E 6 9 3 5 1015.9 1015.9 0.0
29/08:00pm 24.9 27.7 20.4 76 2.9 E 6 9 3 5 1015.5 1015.5 0.0
29/07:30pm 25.3 27.7 20.1 73 3.4 E 7 11 4 6 1015.1 1015.1 0.0
29/07:00pm 25.7 27.7 19.1 67 4.2 E 7 15 4 8 1014.8 1014.8 0.0
29/06:30pm 26.2 27.8 18.3 61 5.0 ENE 7 17 4 9 1014.4 1014.4 0.0
29/06:00pm 27.2 27.9 17.1 54 6.3 E 9 19 5 10 1014.1 1014.1 0.0
29/05:30pm 28.3 28.6 16.9 50 7.1 E 11 20 6 11 1013.7 1013.7 0.0
29/05:00pm 29.2 28.5 16.4 46 8.0 E 15 22 8 12 1013.4 1013.4 0.0
29/04:30pm 30.2 29.4 16.2 42 8.7 ENE 15 26 8 14 1013.5 1013.5 0.0
29/04:00pm 31.1 30.6 15.9 40 9.5 ENE 13 24 7 13 1013.4 1013.4 0.0
29/03:30pm 31.0 30.1 15.8 40 9.4 ENE 15 32 8 17 1013.4 1013.4 0.0
29/03:00pm 31.1 30.6 15.9 40 9.5 E 13 24 7 13 1013.7 1013.7 0.0
29/02:30pm 30.8 29.5 14.8 37 9.8 ENE 15 28 8 15 1013.9 1013.9 0.0
29/02:00pm 30.3 28.6 14.8 39 9.5 E 17 32 9 17 1014.2 1014.2 0.0
29/01:30pm 30.7 28.8 15.2 39 9.5 E 19 33 10 18 1014.7 1014.7 0.0
29/01:00pm 30.3 28.1 14.4 38 9.6 E 19 41 10 22 1015.3 1015.3 0.0
29/12:30pm 30.6 28.4 14.3 37 9.9 ESE 19 35 10 19 1015.5 1015.5 0.0
29/12:00pm 30.8 28.6 14.4 36 10.0 ESE 19 35 10 19 1016.1 1016.1 0.0
29/11:30am 29.4 28.1 14.8 41 8.9 E 15 26 8 14 1016.6 1016.6 0.0
29/11:00am 28.8 27.8 14.6 42 8.6 E 13 26 7 14 1016.9 1016.9 0.0
29/10:30am 27.8 25.9 14.1 43 8.2 ESE 17 28 9 15 1017.4 1017.4 0.0
29/10:00am 27.3 25.6 14.7 46 7.6 ESE 17 28 9 15 1017.6 1017.6 0.0
29/09:30am 26.4 25.1 15.8 52 6.5 ESE 17 28 9 15 1017.6 1017.6 0.0
29/09:00am 25.6 25.2 16.2 56 5.8 ESE 13 20 7 11 1017.6 1017.6 0.0
29/08:30am 24.7 24.9 16.7 61 4.9 E 11 22 6 12 1017.4 1017.4 0.0
29/08:00am 22.8 24.8 17.9 74 3.1 SE 4 11 2 6 1017.1 1017.1 0.0
29/07:30am 20.1 22.3 18.4 90 1.1 SE 4 7 2 4 1016.9 1016.9 0.0
29/07:00am 19.5 21.3 18.3 93 0.7 ESE 6 9 3 5 1016.6 1016.6 0.0
29/06:30am 19.6 21.8 19.1 97 0.3 SE 6 9 3 5 1016.3 1016.3 0.0
29/06:00am 18.9 21.0 18.9 100 0.0 SE 6 7 3 4 1016.2 1016.2 0.0
29/05:30am 18.6 20.5 18.6 100 0.0 SE 6 7 3 4 1016.0 1016.0 0.0
29/05:00am 18.7 20.6 18.5 99 0.1 SE 6 6 3 3 1016.0 1016.0 0.0
29/04:30am 19.3 21.7 18.8 97 0.3 SE 4 6 2 3 1015.9 1015.9 0.0
29/04:00am 19.7 22.1 18.9 95 0.5 SE 4 6 2 3 1016.1 1016.1 0.0
29/03:30am 20.1 22.2 18.2 89 1.2 SE 4 6 2 3 1016.4 1016.4 0.0
29/03:00am 21.0 23.1 18.2 84 1.7 SE 4 9 2 5 1016.6 1016.6 0.0
29/02:30am 22.1 23.8 18.5 80 2.3 ESE 7 11 4 6 1016.7 1016.7 0.0
29/02:00am 22.8 23.9 18.8 78 2.5 ESE 11 19 6 10 1016.6 1016.6 0.0
29/01:30am 23.2 24.5 19.2 78 2.5 ESE 11 19 6 10 1016.6 1016.6 0.0
29/01:00am 23.1 24.9 19.5 80 2.3 ESE 9 19 5 10 1016.6 1016.6 0.0
29/12:30am 21.8 24.5 20.3 91 1.0 SE 6 9 3 5 1016.6 1016.6 0.0
29/12:00am 21.3 24.5 21.3 100 0.0 ESE 6 11 3 6 1016.5 1016.5 0.0
 
Date/Time
CST
Temp
°C
App
Temp
°C
Dew
Point
Rel
Hum
%
Delta-T
°C
Wind Press
QNH
hPa
Press
MSL
hPa
Rain
since 9 am
mm
Dir
 
Spd
km/h
Gust
km/h
Spd
kts
Gust
kts
28/11:30pm 18.7 21.1 18.7 100 0.0 SE 4 6 2 3 1016.6 1016.6 0.0
28/11:00pm 18.8 22.0 18.8 100 0.0 CALM 0 0 0 0 1016.6 1016.6 0.0
28/10:30pm 19.3 22.4 18.6 96 0.4 CALM 0 0 0 0 1016.7 1016.7 0.0
28/10:00pm 19.9 23.0 18.7 93 0.7 CALM 0 0 0 0 1016.8 1016.8 0.0
28/09:30pm 20.5 23.5 18.4 88 1.3 CALM 0 0 0 0 1016.8 1016.8 0.0
28/09:00pm 21.0 23.5 18.2 84 1.7 ESE 2 4 1 2 1016.7 1016.7 0.0
28/08:30pm 21.6 24.0 18.0 80 2.2 E 2 2 1 1 1016.7 1016.7 0.0
28/08:00pm 22.8 25.3 19.0 79 2.4 ESE 4 6 2 3 1016.3 1016.3 0.0
28/07:30pm 23.4 25.5 17.2 68 3.8 E 2 4 1 2 1016.0 1016.0 0.0
28/07:00pm 24.6 26.6 17.8 66 4.3 E 4 6 2 3 1015.6 1015.6 0.0

Other Formats:

Comma delimited format used in spreadsheet applications
http://www.bom.gov.au/fwo/IDD60801/IDD60801.94109.axf

JavaScript Object Notation format (JSON) in row-major order
http://www.bom.gov.au/fwo/IDD60801/IDD60801.94109.json